Time;durP1;ratioP1;P1;durP2;ratioP2;P2;SDS_P1;SDS_P2;PMS_P1;PMS_P2;Temp;Humidity;BMP_temperature;BMP_pressure;BME280_temperature;BME280_humidity;BME280_pressure;Samples;Min_cycle;Max_cycle;Signal;HPM_P1;HPM_P2
2022/10/28 00:00:00;;;;;;;0.5;0.5;;;;;;;16.6;100.0;101520;;;;
2022/10/28 00:01:04;;;;;;;0.5;0.5;;;;;;;16.7;100.0;101520;;;;
2022/10/28 00:02:00;;;;;;;0.5;0.5;;;;;;;16.7;100.0;101520;;;;
2022/10/28 00:03:00;;;;;;;0.5;0.5;;;;;;;16.8;100.0;101520;;;;
2022/10/28 00:04:00;;;;;;;0.5;0.5;;;;;;;16.8;100.0;101520;;;;
2022/10/28 00:05:00;;;;;;;0.4;0.4;;;;;;;16.6;100.0;101520;;;;
2022/10/28 00:06:01;;;;;;;0.4;0.4;;;;;;;16.6;100.0;101520;;;;
2022/10/28 00:07:00;;;;;;;0.4;0.4;;;;;;;16.6;100.0;101520;;;;
2022/10/28 00:08:00;;;;;;;0.4;0.4;;;;;;;16.6;100.0;101520;;;;
2022/10/28 00:09:00;;;;;;;0.4;0.4;;;;;;;16.5;100.0;101520;;;;
2022/10/28 00:10:00;;;;;;;0.4;0.4;;;;;;;16.5;100.0;101520;;;;
2022/10/28 00:11:01;;;;;;;0.4;0.4;;;;;;;16.6;100.0;101520;;;;
2022/10/28 00:12:00;;;;;;;0.4;0.4;;;;;;;16.6;100.0;101520;;;;
2022/10/28 00:13:00;;;;;;;0.4;0.4;;;;;;;16.5;100.0;101520;;;;
2022/10/28 00:14:01;;;;;;;0.4;0.4;;;;;;;16.5;100.0;101520;;;;
2022/10/28 00:15:00;;;;;;;0.4;0.4;;;;;;;16.4;100.0;101520;;;;
2022/10/28 00:16:10;;;;;;;0.4;0.4;;;;;;;16.4;100.0;101520;;;;
2022/10/28 00:17:00;;;;;;;0.4;0.4;;;;;;;16.5;100.0;101520;;;;
2022/10/28 00:18:00;;;;;;;0.4;0.4;;;;;;;16.5;100.0;101520;;;;
2022/10/28 00:19:00;;;;;;;0.4;0.4;;;;;;;16.4;100.0;101520;;;;
2022/10/28 00:20:00;;;;;;;0.4;0.4;;;;;;;16.4;100.0;101520;;;;
2022/10/28 00:21:01;;;;;;;0.4;0.4;;;;;;;16.4;100.0;101520;;;;
2022/10/28 00:22:00;;;;;;;0.4;0.4;;;;;;;16.4;100.0;101520;;;;
2022/10/28 00:23:00;;;;;;;0.4;0.4;;;;;;;16.4;100.0;101520;;;;
2022/10/28 00:24:00;;;;;;;0.4;0.4;;;;;;;16.4;100.0;101520;;;;
2022/10/28 00:25:00;;;;;;;0.5;0.5;;;;;;;16.5;100.0;101520;;;;
2022/10/28 00:26:04;;;;;;;0.5;0.5;;;;;;;16.5;100.0;101520;;;;
2022/10/28 00:27:00;;;;;;;0.5;0.5;;;;;;;16.5;100.0;101520;;;;
2022/10/28 00:28:00;;;;;;;0.5;0.5;;;;;;;16.5;100.0;101520;;;;
2022/10/28 00:29:03;;;;;;;0.5;0.5;;;;;;;16.4;100.0;101520;;;;
2022/10/28 00:30:00;;;;;;;0.5;0.5;;;;;;;16.4;100.0;101520;;;;
2022/10/28 00:31:04;;;;;;;0.5;0.5;;;;;;;16.4;100.0;101520;;;;
2022/10/28 00:32:00;;;;;;;0.5;0.5;;;;;;;16.4;100.0;101520;;;;
2022/10/28 00:33:00;;;;;;;0.5;0.5;;;;;;;16.4;100.0;101520;;;;
2022/10/28 00:34:01;;;;;;;0.5;0.5;;;;;;;16.4;100.0;101520;;;;
2022/10/28 00:35:00;;;;;;;0.5;0.5;;;;;;;16.4;100.0;101510;;;;
2022/10/28 00:36:08;;;;;;;0.5;0.5;;;;;;;16.4;100.0;101510;;;;
2022/10/28 00:37:00;;;;;;;0.5;0.5;;;;;;;16.5;100.0;101510;;;;
2022/10/28 00:38:00;;;;;;;0.5;0.5;;;;;;;16.5;100.0;101510;;;;
2022/10/28 00:39:01;;;;;;;0.5;0.5;;;;;;;16.4;100.0;101510;;;;
2022/10/28 00:40:00;;;;;;;0.5;0.5;;;;;;;16.4;100.0;101510;;;;
2022/10/28 00:41:00;;;;;;;0.5;0.5;;;;;;;16.6;100.0;101510;;;;
2022/10/28 00:42:02;;;;;;;0.5;0.5;;;;;;;16.6;100.0;101510;;;;
2022/10/28 00:43:00;;;;;;;0.5;0.5;;;;;;;16.5;100.0;101510;;;;
2022/10/28 00:44:02;;;;;;;0.5;0.5;;;;;;;16.5;100.0;101510;;;;
2022/10/28 00:45:01;;;;;;;6.9;2.4;;;;;;;16.4;100.0;101520;;;;
2022/10/28 00:46:00;;;;;;;6.9;2.4;;;;;;;16.4;100.0;101520;;;;
2022/10/28 00:47:00;;;;;;;6.9;2.4;;;;;;;16.4;100.0;101520;;;;
2022/10/28 00:48:02;;;;;;;6.9;2.4;;;;;;;16.4;100.0;101520;;;;
2022/10/28 00:49:05;;;;;;;6.9;2.4;;;;;;;16.3;100.0;101520;;;;
2022/10/28 00:50:10;;;;;;;6.9;2.4;;;;;;;16.3;100.0;101520;;;;
2022/10/28 00:51:00;;;;;;;6.9;2.4;;;;;;;16.2;100.0;101510;;;;
2022/10/28 00:52:03;;;;;;;6.9;2.4;;;;;;;16.2;100.0;101510;;;;
2022/10/28 00:53:02;;;;;;;6.9;2.4;;;;;;;16.3;100.0;101510;;;;
2022/10/28 00:54:01;;;;;;;6.9;2.4;;;;;;;16.3;100.0;101510;;;;
2022/10/28 00:55:01;;;;;;;6.9;2.4;;;;;;;16.1;100.0;101510;;;;
2022/10/28 00:56:00;;;;;;;6.9;2.4;;;;;;;16.1;100.0;101510;;;;
2022/10/28 00:57:03;;;;;;;6.9;2.4;;;;;;;16.0;100.0;101500;;;;
2022/10/28 00:58:01;;;;;;;6.9;2.4;;;;;;;16.0;100.0;101500;;;;
2022/10/28 00:59:03;;;;;;;6.9;2.4;;;;;;;16.1;100.0;101500;;;;
2022/10/28 01:00:01;;;;;;;6.9;2.4;;;;;;;16.1;100.0;101500;;;;
2022/10/28 01:01:00;;;;;;;6.9;2.4;;;;;;;16.1;100.0;101500;;;;
2022/10/28 01:02:00;;;;;;;6.9;2.4;;;;;;;16.1;100.0;101500;;;;
2022/10/28 01:03:00;;;;;;;6.9;2.4;;;;;;;15.9;100.0;101500;;;;
2022/10/28 01:04:00;;;;;;;6.9;2.4;;;;;;;15.9;100.0;101500;;;;
2022/10/28 01:05:00;;;;;;;1.4;1.3;;;;;;;16.1;100.0;101490;;;;
2022/10/28 01:06:00;;;;;;;1.4;1.3;;;;;;;16.1;100.0;101490;;;;
2022/10/28 01:07:01;;;;;;;1.4;1.3;;;;;;;16.0;100.0;101490;;;;
2022/10/28 01:08:01;;;;;;;1.4;1.3;;;;;;;16.0;100.0;101490;;;;
2022/10/28 01:09:00;;;;;;;1.4;1.3;;;;;;;15.9;100.0;101490;;;;
2022/10/28 01:10:00;;;;;;;1.4;1.3;;;;;;;15.9;100.0;101490;;;;
2022/10/28 01:11:07;;;;;;;1.4;1.3;;;;;;;15.9;100.0;101490;;;;
2022/10/28 01:12:10;;;;;;;1.4;1.3;;;;;;;15.9;100.0;101490;;;;
2022/10/28 01:13:03;;;;;;;1.4;1.3;;;;;;;16.1;100.0;101480;;;;
2022/10/28 01:14:08;;;;;;;1.4;1.3;;;;;;;16.1;100.0;101480;;;;
2022/10/28 01:15:10;;;;;;;1.4;1.3;;;;;;;16.0;100.0;101470;;;;
2022/10/28 01:16:10;;;;;;;1.4;1.3;;;;;;;16.0;100.0;101470;;;;
2022/10/28 01:17:10;;;;;;;1.4;1.3;;;;;;;15.9;100.0;101470;;;;
2022/10/28 01:18:00;;;;;;;1.4;1.3;;;;;;;15.9;100.0;101470;;;;
2022/10/28 01:19:10;;;;;;;1.4;1.3;;;;;;;15.9;100.0;101470;;;;
2022/10/28 01:20:01;;;;;;;1.4;1.3;;;;;;;15.9;100.0;101470;;;;
2022/10/28 01:21:10;;;;;;;1.4;1.3;;;;;;;16.0;100.0;101470;;;;
2022/10/28 01:22:06;;;;;;;1.4;1.3;;;;;;;16.0;100.0;101470;;;;
2022/10/28 01:23:06;;;;;;;1.4;1.3;;;;;;;15.9;100.0;101470;;;;
2022/10/28 01:24:10;;;;;;;1.4;1.3;;;;;;;15.9;100.0;101470;;;;
2022/10/28 01:25:09;;;;;;;1.4;1.3;;;;;;;15.9;100.0;101460;;;;
2022/10/28 01:26:10;;;;;;;1.4;1.3;;;;;;;15.9;100.0;101460;;;;
2022/10/28 01:27:10;;;;;;;1.4;1.3;;;;;;;15.8;100.0;101460;;;;
2022/10/28 01:28:10;;;;;;;1.4;1.3;;;;;;;15.8;100.0;101460;;;;
2022/10/28 01:29:00;;;;;;;1.4;1.3;;;;;;;15.8;100.0;101460;;;;
2022/10/28 01:30:10;;;;;;;1.4;1.3;;;;;;;15.8;100.0;101460;;;;
2022/10/28 01:31:10;;;;;;;1.4;1.3;;;;;;;15.8;100.0;101460;;;;
2022/10/28 01:32:06;;;;;;;1.4;1.3;;;;;;;15.8;100.0;101460;;;;
2022/10/28 01:33:10;;;;;;;1.4;1.3;;;;;;;15.9;100.0;101460;;;;
2022/10/28 01:34:07;;;;;;;1.4;1.3;;;;;;;15.9;100.0;101460;;;;
2022/10/28 01:35:00;;;;;;;1.4;1.3;;;;;;;15.9;100.0;101470;;;;
2022/10/28 01:36:05;;;;;;;1.4;1.3;;;;;;;15.9;100.0;101470;;;;
2022/10/28 01:37:10;;;;;;;1.4;1.3;;;;;;;15.9;100.0;101470;;;;
2022/10/28 01:38:10;;;;;;;1.4;1.3;;;;;;;15.9;100.0;101470;;;;
2022/10/28 01:39:06;;;;;;;1.4;1.3;;;;;;;15.8;100.0;101460;;;;
2022/10/28 01:40:00;;;;;;;1.4;1.3;;;;;;;15.8;100.0;101460;;;;
2022/10/28 01:41:10;;;;;;;1.4;1.3;;;;;;;15.8;100.0;101470;;;;
2022/10/28 01:42:10;;;;;;;1.4;1.3;;;;;;;15.8;100.0;101470;;;;
2022/10/28 01:43:01;;;;;;;1.4;1.3;;;;;;;15.7;100.0;101460;;;;
2022/10/28 01:44:04;;;;;;;1.4;1.3;;;;;;;15.7;100.0;101460;;;;
2022/10/28 01:45:02;;;;;;;1.1;1.1;;;;;;;16.0;100.0;101470;;;;
2022/10/28 01:46:04;;;;;;;1.1;1.1;;;;;;;16.0;100.0;101470;;;;
2022/10/28 01:47:03;;;;;;;1.1;1.1;;;;;;;15.8;100.0;101470;;;;
2022/10/28 01:48:01;;;;;;;1.1;1.1;;;;;;;15.8;100.0;101470;;;;
2022/10/28 01:49:04;;;;;;;1.1;1.1;;;;;;;15.8;100.0;101460;;;;
2022/10/28 01:50:05;;;;;;;1.1;1.1;;;;;;;15.8;100.0;101460;;;;
2022/10/28 01:51:03;;;;;;;1.1;1.1;;;;;;;15.9;100.0;101460;;;;
2022/10/28 01:52:02;;;;;;;1.1;1.1;;;;;;;15.9;100.0;101460;;;;
2022/10/28 01:53:02;;;;;;;1.1;1.1;;;;;;;15.8;100.0;101460;;;;
2022/10/28 01:54:02;;;;;;;1.1;1.1;;;;;;;15.8;100.0;101460;;;;
2022/10/28 01:55:03;;;;;;;1.1;1.1;;;;;;;15.8;100.0;101460;;;;
2022/10/28 01:56:03;;;;;;;1.1;1.1;;;;;;;15.8;100.0;101460;;;;
2022/10/28 01:57:02;;;;;;;1.1;1.1;;;;;;;15.6;100.0;101460;;;;
2022/10/28 01:58:01;;;;;;;1.1;1.1;;;;;;;15.6;100.0;101460;;;;
2022/10/28 01:59:02;;;;;;;1.1;1.1;;;;;;;15.6;100.0;101460;;;;
2022/10/28 02:00:00;;;;;;;1.1;1.1;;;;;;;15.6;100.0;101460;;;;
2022/10/28 02:01:03;;;;;;;1.1;1.1;;;;;;;15.6;100.0;101450;;;;
2022/10/28 02:02:00;;;;;;;1.1;1.1;;;;;;;15.6;100.0;101450;;;;
2022/10/28 02:03:00;;;;;;;1.1;1.1;;;;;;;15.6;100.0;101450;;;;
2022/10/28 02:04:00;;;;;;;1.1;1.1;;;;;;;15.6;100.0;101450;;;;
2022/10/28 02:05:10;;;;;;;1.1;1.0;;;;;;;15.6;100.0;101450;;;;
2022/10/28 02:06:02;;;;;;;1.1;1.0;;;;;;;15.6;100.0;101450;;;;
2022/10/28 02:07:00;;;;;;;1.1;1.0;;;;;;;15.6;100.0;101460;;;;
2022/10/28 02:08:05;;;;;;;1.1;1.0;;;;;;;15.6;100.0;101460;;;;
2022/10/28 02:09:05;;;;;;;1.1;1.0;;;;;;;15.4;100.0;101460;;;;
2022/10/28 02:10:07;;;;;;;1.1;1.0;;;;;;;15.4;100.0;101460;;;;
2022/10/28 02:11:00;;;;;;;1.1;1.0;;;;;;;15.5;100.0;101450;;;;
2022/10/28 02:12:06;;;;;;;1.1;1.0;;;;;;;15.5;100.0;101450;;;;
2022/10/28 02:13:01;;;;;;;1.1;1.0;;;;;;;15.5;100.0;101450;;;;
2022/10/28 02:14:00;;;;;;;1.1;1.0;;;;;;;15.5;100.0;101450;;;;
2022/10/28 02:15:10;;;;;;;1.1;1.0;;;;;;;15.5;100.0;101460;;;;
2022/10/28 02:16:03;;;;;;;1.1;1.0;;;;;;;15.5;100.0;101460;;;;
2022/10/28 02:17:09;;;;;;;1.1;1.0;;;;;;;15.6;100.0;101450;;;;
2022/10/28 02:18:09;;;;;;;1.1;1.0;;;;;;;15.6;100.0;101450;;;;
2022/10/28 02:19:00;;;;;;;1.1;1.0;;;;;;;15.4;100.0;101450;;;;
2022/10/28 02:20:10;;;;;;;1.1;1.0;;;;;;;15.4;100.0;101450;;;;
2022/10/28 02:21:04;;;;;;;1.1;1.0;;;;;;;15.5;100.0;101450;;;;
2022/10/28 02:22:09;;;;;;;1.1;1.0;;;;;;;15.5;100.0;101450;;;;
2022/10/28 02:23:10;;;;;;;1.1;1.0;;;;;;;15.5;100.0;101450;;;;
2022/10/28 02:24:08;;;;;;;0.4;0.4;;;;;;;15.5;100.0;101450;;;;
2022/10/28 02:25:10;;;;;;;0.4;0.4;;;;;;;15.4;100.0;101450;;;;
2022/10/28 02:26:07;;;;;;;0.4;0.4;;;;;;;15.4;100.0;101450;;;;
2022/10/28 02:27:06;;;;;;;0.4;0.4;;;;;;;15.4;100.0;101450;;;;
2022/10/28 02:28:05;;;;;;;0.4;0.4;;;;;;;15.4;100.0;101450;;;;
2022/10/28 02:29:04;;;;;;;0.4;0.4;;;;;;;15.4;100.0;101450;;;;
2022/10/28 02:30:04;;;;;;;0.4;0.4;;;;;;;15.4;100.0;101450;;;;
2022/10/28 02:31:04;;;;;;;0.4;0.4;;;;;;;15.4;100.0;101450;;;;
2022/10/28 02:32:03;;;;;;;0.4;0.4;;;;;;;15.4;100.0;101450;;;;
2022/10/28 02:33:02;;;;;;;0.4;0.4;;;;;;;15.4;100.0;101450;;;;
2022/10/28 02:34:04;;;;;;;0.4;0.4;;;;;;;15.4;100.0;101450;;;;
2022/10/28 02:35:01;;;;;;;0.4;0.4;;;;;;;15.3;100.0;101450;;;;
2022/10/28 02:36:04;;;;;;;0.4;0.4;;;;;;;15.3;100.0;101450;;;;
2022/10/28 02:37:02;;;;;;;0.4;0.4;;;;;;;15.3;100.0;101450;;;;
2022/10/28 02:38:02;;;;;;;0.4;0.4;;;;;;;15.3;100.0;101450;;;;
2022/10/28 02:39:02;;;;;;;0.4;0.4;;;;;;;15.4;100.0;101450;;;;
2022/10/28 02:40:02;;;;;;;0.4;0.4;;;;;;;15.4;100.0;101450;;;;
2022/10/28 02:41:02;;;;;;;0.4;0.4;;;;;;;15.3;100.0;101450;;;;
2022/10/28 02:42:05;;;;;;;0.4;0.4;;;;;;;15.3;100.0;101450;;;;
2022/10/28 02:43:02;;;;;;;0.4;0.4;;;;;;;15.3;100.0;101450;;;;
2022/10/28 02:44:04;;;;;;;0.8;0.8;;;;;;;15.3;100.0;101450;;;;
2022/10/28 02:45:04;;;;;;;0.8;0.8;;;;;;;15.3;100.0;101440;;;;
2022/10/28 02:46:01;;;;;;;0.8;0.8;;;;;;;15.3;100.0;101440;;;;
2022/10/28 02:47:04;;;;;;;0.8;0.8;;;;;;;15.2;100.0;101440;;;;
2022/10/28 02:48:03;;;;;;;0.8;0.8;;;;;;;15.2;100.0;101440;;;;
2022/10/28 02:49:02;;;;;;;0.8;0.8;;;;;;;15.2;100.0;101440;;;;
2022/10/28 02:50:02;;;;;;;0.8;0.8;;;;;;;15.2;100.0;101440;;;;
2022/10/28 02:51:04;;;;;;;0.8;0.8;;;;;;;15.2;100.0;101440;;;;
2022/10/28 02:52:02;;;;;;;0.8;0.8;;;;;;;15.2;100.0;101440;;;;
2022/10/28 02:53:01;;;;;;;0.8;0.8;;;;;;;15.2;100.0;101440;;;;
2022/10/28 02:54:00;;;;;;;0.8;0.8;;;;;;;15.2;100.0;101440;;;;
2022/10/28 02:55:03;;;;;;;0.8;0.8;;;;;;;15.1;100.0;101440;;;;
2022/10/28 02:56:01;;;;;;;0.8;0.8;;;;;;;15.1;100.0;101440;;;;
2022/10/28 02:57:02;;;;;;;0.8;0.8;;;;;;;15.2;100.0;101440;;;;
2022/10/28 02:58:00;;;;;;;0.8;0.8;;;;;;;15.2;100.0;101440;;;;
2022/10/28 02:59:00;;;;;;;0.8;0.8;;;;;;;15.1;100.0;101440;;;;
2022/10/28 03:00:03;;;;;;;0.8;0.8;;;;;;;15.1;100.0;101440;;;;
2022/10/28 03:01:00;;;;;;;0.8;0.8;;;;;;;15.0;100.0;101440;;;;
2022/10/28 03:02:00;;;;;;;0.8;0.8;;;;;;;15.0;100.0;101440;;;;
2022/10/28 03:03:00;;;;;;;0.8;0.8;;;;;;;14.9;100.0;101430;;;;
2022/10/28 03:04:00;;;;;;;0.8;0.8;;;;;;;14.9;100.0;101430;;;;
2022/10/28 03:05:00;;;;;;;0.4;0.4;;;;;;;14.9;100.0;101440;;;;
2022/10/28 03:06:00;;;;;;;0.4;0.4;;;;;;;14.9;100.0;101440;;;;
2022/10/28 03:07:00;;;;;;;0.4;0.4;;;;;;;15.0;100.0;101430;;;;
2022/10/28 03:08:00;;;;;;;0.4;0.4;;;;;;;15.0;100.0;101430;;;;
2022/10/28 03:09:00;;;;;;;0.4;0.4;;;;;;;14.9;100.0;101440;;;;
2022/10/28 03:10:00;;;;;;;0.4;0.4;;;;;;;14.9;100.0;101440;;;;
2022/10/28 03:11:00;;;;;;;0.4;0.4;;;;;;;14.9;100.0;101440;;;;
2022/10/28 03:12:00;;;;;;;0.4;0.4;;;;;;;14.9;100.0;101440;;;;
2022/10/28 03:13:00;;;;;;;0.4;0.4;;;;;;;14.9;100.0;101440;;;;
2022/10/28 03:14:00;;;;;;;0.4;0.4;;;;;;;14.9;100.0;101440;;;;
2022/10/28 03:15:01;;;;;;;0.4;0.4;;;;;;;14.9;100.0;101430;;;;
2022/10/28 03:16:00;;;;;;;0.4;0.4;;;;;;;14.9;100.0;101430;;;;
2022/10/28 03:17:00;;;;;;;0.4;0.4;;;;;;;14.9;100.0;101430;;;;
2022/10/28 03:18:00;;;;;;;0.4;0.4;;;;;;;14.9;100.0;101430;;;;
2022/10/28 03:19:00;;;;;;;0.4;0.4;;;;;;;14.8;100.0;101430;;;;
2022/10/28 03:20:00;;;;;;;0.4;0.4;;;;;;;14.8;100.0;101430;;;;
2022/10/28 03:21:00;;;;;;;0.4;0.4;;;;;;;14.8;100.0;101430;;;;
2022/10/28 03:22:00;;;;;;;0.4;0.4;;;;;;;14.8;100.0;101430;;;;
2022/10/28 03:23:00;;;;;;;0.4;0.4;;;;;;;14.8;100.0;101430;;;;
2022/10/28 03:24:00;;;;;;;0.5;0.5;;;;;;;14.8;100.0;101430;;;;
2022/10/28 03:25:00;;;;;;;0.5;0.5;;;;;;;14.8;100.0;101440;;;;
2022/10/28 03:26:00;;;;;;;0.5;0.5;;;;;;;14.8;100.0;101440;;;;
2022/10/28 03:27:00;;;;;;;0.5;0.5;;;;;;;14.8;100.0;101430;;;;
2022/10/28 03:28:00;;;;;;;0.5;0.5;;;;;;;14.8;100.0;101430;;;;
2022/10/28 03:29:00;;;;;;;0.5;0.5;;;;;;;14.7;100.0;101430;;;;
2022/10/28 03:30:00;;;;;;;0.5;0.5;;;;;;;14.7;100.0;101430;;;;
2022/10/28 03:31:00;;;;;;;0.5;0.5;;;;;;;14.7;100.0;101430;;;;
2022/10/28 03:32:00;;;;;;;0.5;0.5;;;;;;;14.7;100.0;101430;;;;
2022/10/28 03:33:00;;;;;;;0.5;0.5;;;;;;;14.7;100.0;101430;;;;
2022/10/28 03:34:00;;;;;;;0.5;0.5;;;;;;;14.7;100.0;101430;;;;
2022/10/28 03:35:00;;;;;;;0.5;0.5;;;;;;;14.7;100.0;101430;;;;
2022/10/28 03:36:00;;;;;;;0.5;0.5;;;;;;;14.7;100.0;101430;;;;
2022/10/28 03:37:00;;;;;;;0.5;0.5;;;;;;;14.6;100.0;101430;;;;
2022/10/28 03:38:00;;;;;;;0.5;0.5;;;;;;;14.6;100.0;101430;;;;
2022/10/28 03:39:00;;;;;;;0.5;0.5;;;;;;;14.6;100.0;101430;;;;
2022/10/28 03:40:01;;;;;;;0.5;0.5;;;;;;;14.6;100.0;101430;;;;
2022/10/28 03:41:00;;;;;;;0.5;0.5;;;;;;;14.6;100.0;101430;;;;
2022/10/28 03:42:00;;;;;;;0.5;0.5;;;;;;;14.6;100.0;101430;;;;
2022/10/28 03:43:00;;;;;;;0.5;0.5;;;;;;;14.6;100.0;101430;;;;
2022/10/28 03:44:00;;;;;;;0.5;0.5;;;;;;;14.6;100.0;101430;;;;
2022/10/28 03:45:00;;;;;;;0.5;0.5;;;;;;;14.6;100.0;101440;;;;
2022/10/28 03:46:00;;;;;;;0.5;0.5;;;;;;;14.6;100.0;101440;;;;
2022/10/28 03:47:00;;;;;;;0.5;0.5;;;;;;;14.5;100.0;101440;;;;
2022/10/28 03:48:00;;;;;;;0.5;0.5;;;;;;;14.5;100.0;101440;;;;
2022/10/28 03:49:00;;;;;;;0.5;0.5;;;;;;;14.6;100.0;101440;;;;
2022/10/28 03:50:00;;;;;;;0.5;0.5;;;;;;;14.6;100.0;101440;;;;
2022/10/28 03:51:00;;;;;;;0.5;0.5;;;;;;;14.5;100.0;101440;;;;
2022/10/28 03:52:00;;;;;;;0.5;0.5;;;;;;;14.5;100.0;101440;;;;
2022/10/28 03:53:00;;;;;;;0.5;0.5;;;;;;;14.5;100.0;101440;;;;
2022/10/28 03:54:00;;;;;;;0.5;0.5;;;;;;;14.5;100.0;101440;;;;
2022/10/28 03:55:00;;;;;;;0.5;0.5;;;;;;;14.4;100.0;101430;;;;
2022/10/28 03:56:00;;;;;;;0.5;0.5;;;;;;;14.4;100.0;101430;;;;
2022/10/28 03:57:00;;;;;;;0.5;0.5;;;;;;;14.5;100.0;101440;;;;
2022/10/28 03:58:00;;;;;;;0.5;0.5;;;;;;;14.5;100.0;101440;;;;
2022/10/28 03:59:00;;;;;;;0.5;0.5;;;;;;;14.4;100.0;101440;;;;
2022/10/28 04:00:00;;;;;;;0.5;0.5;;;;;;;14.4;100.0;101440;;;;
2022/10/28 04:01:00;;;;;;;0.5;0.5;;;;;;;14.5;100.0;101430;;;;
2022/10/28 04:02:00;;;;;;;0.5;0.5;;;;;;;14.5;100.0;101430;;;;
2022/10/28 04:03:00;;;;;;;0.5;0.5;;;;;;;14.5;100.0;101430;;;;
2022/10/28 04:04:00;;;;;;;0.5;0.5;;;;;;;14.5;100.0;101430;;;;
2022/10/28 04:05:00;;;;;;;0.5;0.5;;;;;;;14.5;100.0;101430;;;;
2022/10/28 04:06:00;;;;;;;0.5;0.5;;;;;;;14.5;100.0;101430;;;;
2022/10/28 04:07:00;;;;;;;0.5;0.5;;;;;;;14.5;100.0;101420;;;;
2022/10/28 04:08:00;;;;;;;0.5;0.5;;;;;;;14.5;100.0;101420;;;;
2022/10/28 04:09:00;;;;;;;0.5;0.5;;;;;;;14.4;100.0;101420;;;;
2022/10/28 04:10:00;;;;;;;0.5;0.5;;;;;;;14.4;100.0;101420;;;;
2022/10/28 04:11:00;;;;;;;0.5;0.5;;;;;;;14.4;100.0;101420;;;;
2022/10/28 04:12:00;;;;;;;0.5;0.5;;;;;;;14.4;100.0;101420;;;;
2022/10/28 04:13:02;;;;;;;0.5;0.5;;;;;;;14.5;100.0;101420;;;;
2022/10/28 04:14:00;;;;;;;0.5;0.5;;;;;;;14.5;100.0;101420;;;;
2022/10/28 04:15:00;;;;;;;0.5;0.5;;;;;;;14.6;100.0;101420;;;;
2022/10/28 04:16:00;;;;;;;0.5;0.5;;;;;;;14.6;100.0;101420;;;;
2022/10/28 04:17:00;;;;;;;0.5;0.5;;;;;;;14.5;100.0;101420;;;;
2022/10/28 04:18:00;;;;;;;0.5;0.5;;;;;;;14.5;100.0;101420;;;;
2022/10/28 04:19:00;;;;;;;0.5;0.5;;;;;;;14.5;100.0;101430;;;;
2022/10/28 04:20:00;;;;;;;0.5;0.5;;;;;;;14.5;100.0;101430;;;;
2022/10/28 04:21:00;;;;;;;0.5;0.5;;;;;;;14.5;100.0;101430;;;;
2022/10/28 04:22:00;;;;;;;0.5;0.5;;;;;;;14.5;100.0;101430;;;;
2022/10/28 04:23:00;;;;;;;0.5;0.5;;;;;;;14.4;100.0;101430;;;;
2022/10/28 04:24:00;;;;;;;0.5;0.5;;;;;;;14.4;100.0;101430;;;;
2022/10/28 04:25:00;;;;;;;0.5;0.5;;;;;;;14.5;100.0;101430;;;;
2022/10/28 04:26:00;;;;;;;0.5;0.5;;;;;;;14.5;100.0;101430;;;;
2022/10/28 04:27:00;;;;;;;0.5;0.5;;;;;;;14.4;100.0;101430;;;;
2022/10/28 04:28:00;;;;;;;0.5;0.5;;;;;;;14.4;100.0;101430;;;;
2022/10/28 04:29:00;;;;;;;0.5;0.5;;;;;;;14.5;100.0;101430;;;;
2022/10/28 04:30:00;;;;;;;0.5;0.5;;;;;;;14.5;100.0;101430;;;;
2022/10/28 04:31:01;;;;;;;0.5;0.5;;;;;;;14.5;100.0;101420;;;;
2022/10/28 04:32:00;;;;;;;0.5;0.5;;;;;;;14.5;100.0;101420;;;;
2022/10/28 04:33:00;;;;;;;0.5;0.5;;;;;;;14.4;100.0;101440;;;;
2022/10/28 04:34:00;;;;;;;0.5;0.5;;;;;;;14.4;100.0;101440;;;;
2022/10/28 04:35:00;;;;;;;0.5;0.5;;;;;;;14.4;100.0;101440;;;;
2022/10/28 04:36:00;;;;;;;0.5;0.5;;;;;;;14.4;100.0;101440;;;;
2022/10/28 04:37:00;;;;;;;0.5;0.5;;;;;;;14.4;100.0;101440;;;;
2022/10/28 04:38:00;;;;;;;0.5;0.5;;;;;;;14.4;100.0;101440;;;;
2022/10/28 04:39:00;;;;;;;0.5;0.5;;;;;;;14.5;100.0;101440;;;;
2022/10/28 04:40:00;;;;;;;0.5;0.5;;;;;;;14.5;100.0;101440;;;;
2022/10/28 04:41:00;;;;;;;0.5;0.5;;;;;;;14.5;100.0;101430;;;;
2022/10/28 04:42:00;;;;;;;0.5;0.5;;;;;;;14.5;100.0;101430;;;;
2022/10/28 04:43:00;;;;;;;0.5;0.5;;;;;;;14.4;100.0;101440;;;;
2022/10/28 04:44:00;;;;;;;0.9;0.9;;;;;;;14.4;100.0;101440;;;;
2022/10/28 04:45:00;;;;;;;0.9;0.9;;;;;;;14.5;100.0;101430;;;;
2022/10/28 04:46:04;;;;;;;0.9;0.9;;;;;;;14.5;100.0;101430;;;;
2022/10/28 04:47:00;;;;;;;0.9;0.9;;;;;;;14.6;100.0;101430;;;;
2022/10/28 04:48:00;;;;;;;0.9;0.9;;;;;;;14.6;100.0;101430;;;;
2022/10/28 04:49:00;;;;;;;0.9;0.9;;;;;;;14.5;100.0;101430;;;;
2022/10/28 04:50:00;;;;;;;0.9;0.9;;;;;;;14.5;100.0;101430;;;;
2022/10/28 04:51:00;;;;;;;0.9;0.9;;;;;;;14.5;100.0;101440;;;;
2022/10/28 04:52:00;;;;;;;0.9;0.9;;;;;;;14.5;100.0;101440;;;;
2022/10/28 04:53:00;;;;;;;0.9;0.9;;;;;;;14.4;100.0;101430;;;;
2022/10/28 04:54:00;;;;;;;0.9;0.9;;;;;;;14.4;100.0;101430;;;;
2022/10/28 04:55:00;;;;;;;0.9;0.9;;;;;;;14.6;100.0;101430;;;;
2022/10/28 04:56:00;;;;;;;0.9;0.9;;;;;;;14.6;100.0;101430;;;;
2022/10/28 04:57:00;;;;;;;0.9;0.9;;;;;;;14.6;100.0;101440;;;;
2022/10/28 04:58:00;;;;;;;0.9;0.9;;;;;;;14.6;100.0;101440;;;;
2022/10/28 04:59:00;;;;;;;0.9;0.9;;;;;;;14.5;100.0;101430;;;;
2022/10/28 05:00:00;;;;;;;0.9;0.9;;;;;;;14.5;100.0;101430;;;;
2022/10/28 05:01:08;;;;;;;0.9;0.9;;;;;;;14.4;100.0;101430;;;;
2022/10/28 05:02:00;;;;;;;0.9;0.9;;;;;;;14.4;100.0;101430;;;;
2022/10/28 05:03:00;;;;;;;0.9;0.9;;;;;;;14.5;100.0;101430;;;;
2022/10/28 05:04:00;;;;;;;0.4;0.4;;;;;;;14.5;100.0;101430;;;;
2022/10/28 05:05:02;;;;;;;0.4;0.4;;;;;;;14.6;100.0;101430;;;;
2022/10/28 05:06:00;;;;;;;0.4;0.4;;;;;;;14.6;100.0;101430;;;;
2022/10/28 05:07:00;;;;;;;0.4;0.4;;;;;;;14.5;100.0;101430;;;;
2022/10/28 05:08:00;;;;;;;0.4;0.4;;;;;;;14.5;100.0;101430;;;;
2022/10/28 05:09:00;;;;;;;0.4;0.4;;;;;;;14.4;100.0;101430;;;;
2022/10/28 05:10:00;;;;;;;0.4;0.4;;;;;;;14.4;100.0;101430;;;;
2022/10/28 05:11:00;;;;;;;0.4;0.4;;;;;;;14.5;100.0;101430;;;;
2022/10/28 05:12:00;;;;;;;0.4;0.4;;;;;;;14.5;100.0;101430;;;;
2022/10/28 05:13:00;;;;;;;0.4;0.4;;;;;;;14.5;100.0;101430;;;;
2022/10/28 05:14:00;;;;;;;0.4;0.4;;;;;;;14.5;100.0;101430;;;;
2022/10/28 05:15:00;;;;;;;0.4;0.4;;;;;;;14.4;100.0;101430;;;;
2022/10/28 05:16:00;;;;;;;0.4;0.4;;;;;;;14.4;100.0;101430;;;;
2022/10/28 05:17:00;;;;;;;0.4;0.4;;;;;;;14.3;100.0;101430;;;;
2022/10/28 05:18:00;;;;;;;0.4;0.4;;;;;;;14.3;100.0;101430;;;;
2022/10/28 05:19:00;;;;;;;0.4;0.4;;;;;;;14.4;100.0;101430;;;;
2022/10/28 05:20:00;;;;;;;0.4;0.4;;;;;;;14.4;100.0;101430;;;;
2022/10/28 05:21:00;;;;;;;0.4;0.4;;;;;;;14.3;100.0;101430;;;;
2022/10/28 05:22:00;;;;;;;0.4;0.4;;;;;;;14.3;100.0;101430;;;;
2022/10/28 05:23:00;;;;;;;0.4;0.4;;;;;;;14.3;100.0;101420;;;;
2022/10/28 05:24:00;;;;;;;0.7;0.7;;;;;;;14.3;100.0;101420;;;;
2022/10/28 05:25:00;;;;;;;0.7;0.7;;;;;;;14.4;100.0;101420;;;;
2022/10/28 05:26:00;;;;;;;0.7;0.7;;;;;;;14.4;100.0;101420;;;;
2022/10/28 05:27:00;;;;;;;0.7;0.7;;;;;;;14.3;100.0;101420;;;;
2022/10/28 05:28:00;;;;;;;0.7;0.7;;;;;;;14.3;100.0;101420;;;;
2022/10/28 05:29:00;;;;;;;0.7;0.7;;;;;;;14.4;100.0;101420;;;;
2022/10/28 05:30:00;;;;;;;0.7;0.7;;;;;;;14.4;100.0;101420;;;;
2022/10/28 05:31:00;;;;;;;0.7;0.7;;;;;;;14.4;100.0;101420;;;;
2022/10/28 05:32:00;;;;;;;0.7;0.7;;;;;;;14.4;100.0;101420;;;;
2022/10/28 05:33:01;;;;;;;0.7;0.7;;;;;;;14.4;100.0;101430;;;;
2022/10/28 05:34:00;;;;;;;0.7;0.7;;;;;;;14.4;100.0;101430;;;;
2022/10/28 05:35:00;;;;;;;0.7;0.7;;;;;;;14.4;100.0;101420;;;;
2022/10/28 05:36:00;;;;;;;0.7;0.7;;;;;;;14.4;100.0;101420;;;;
2022/10/28 05:37:00;;;;;;;0.7;0.7;;;;;;;14.3;100.0;101420;;;;
2022/10/28 05:38:00;;;;;;;0.7;0.7;;;;;;;14.3;100.0;101420;;;;
2022/10/28 05:39:00;;;;;;;0.7;0.7;;;;;;;14.3;100.0;101420;;;;
2022/10/28 05:40:00;;;;;;;0.7;0.7;;;;;;;14.3;100.0;101420;;;;
2022/10/28 05:41:00;;;;;;;0.7;0.7;;;;;;;14.3;100.0;101410;;;;
2022/10/28 05:42:00;;;;;;;0.7;0.7;;;;;;;14.3;100.0;101410;;;;
2022/10/28 05:43:00;;;;;;;0.7;0.7;;;;;;;14.4;100.0;101410;;;;
2022/10/28 05:44:00;;;;;;;0.9;0.9;;;;;;;14.4;100.0;101410;;;;
2022/10/28 05:45:00;;;;;;;0.9;0.9;;;;;;;14.5;100.0;101410;;;;
2022/10/28 05:46:01;;;;;;;0.9;0.9;;;;;;;14.5;100.0;101410;;;;
2022/10/28 05:47:00;;;;;;;0.9;0.9;;;;;;;14.5;100.0;101410;;;;
2022/10/28 05:48:00;;;;;;;0.9;0.9;;;;;;;14.5;100.0;101410;;;;
2022/10/28 05:49:00;;;;;;;0.9;0.9;;;;;;;14.5;100.0;101410;;;;
2022/10/28 05:50:00;;;;;;;0.9;0.9;;;;;;;14.5;100.0;101410;;;;
2022/10/28 05:51:00;;;;;;;0.9;0.9;;;;;;;14.4;100.0;101410;;;;
2022/10/28 05:52:00;;;;;;;0.9;0.9;;;;;;;14.4;100.0;101410;;;;
2022/10/28 05:53:00;;;;;;;0.9;0.9;;;;;;;14.6;100.0;101410;;;;
2022/10/28 05:54:00;;;;;;;0.9;0.9;;;;;;;14.6;100.0;101410;;;;
2022/10/28 05:55:00;;;;;;;0.9;0.9;;;;;;;14.7;100.0;101410;;;;
2022/10/28 05:56:00;;;;;;;0.9;0.9;;;;;;;14.7;100.0;101410;;;;
2022/10/28 05:57:00;;;;;;;0.9;0.9;;;;;;;14.6;100.0;101410;;;;
2022/10/28 05:58:00;;;;;;;0.9;0.9;;;;;;;14.6;100.0;101410;;;;
2022/10/28 05:59:00;;;;;;;0.9;0.9;;;;;;;14.5;100.0;101410;;;;
2022/10/28 06:00:00;;;;;;;0.9;0.9;;;;;;;14.5;100.0;101410;;;;
2022/10/28 06:01:00;;;;;;;0.9;0.9;;;;;;;14.5;100.0;101420;;;;
2022/10/28 06:02:00;;;;;;;0.9;0.9;;;;;;;14.5;100.0;101420;;;;
2022/10/28 06:03:01;;;;;;;0.9;0.9;;;;;;;14.7;100.0;101420;;;;
2022/10/28 06:04:00;;;;;;;0.6;0.6;;;;;;;14.7;100.0;101420;;;;
2022/10/28 06:05:00;;;;;;;0.6;0.6;;;;;;;14.7;100.0;101420;;;;
2022/10/28 06:06:00;;;;;;;0.6;0.6;;;;;;;14.7;100.0;101420;;;;
2022/10/28 06:07:00;;;;;;;0.6;0.6;;;;;;;14.6;100.0;101420;;;;
2022/10/28 06:08:00;;;;;;;0.6;0.6;;;;;;;14.6;100.0;101420;;;;
2022/10/28 06:09:00;;;;;;;0.6;0.6;;;;;;;14.5;100.0;101420;;;;
2022/10/28 06:10:00;;;;;;;0.6;0.6;;;;;;;14.5;100.0;101420;;;;
2022/10/28 06:11:00;;;;;;;0.6;0.6;;;;;;;14.5;100.0;101410;;;;
2022/10/28 06:12:00;;;;;;;0.6;0.6;;;;;;;14.5;100.0;101410;;;;
2022/10/28 06:14:00;;;;;;;0.6;0.6;;;;;;;14.7;100.0;101420;;;;
2022/10/28 06:15:00;;;;;;;0.6;0.6;;;;;;;14.6;100.0;101420;;;;
2022/10/28 06:16:00;;;;;;;0.6;0.6;;;;;;;14.6;100.0;101420;;;;
2022/10/28 06:17:00;;;;;;;0.6;0.6;;;;;;;14.7;100.0;101420;;;;
2022/10/28 06:18:00;;;;;;;0.6;0.6;;;;;;;14.7;100.0;101420;;;;
2022/10/28 06:19:00;;;;;;;0.6;0.6;;;;;;;14.6;100.0;101420;;;;
2022/10/28 06:20:00;;;;;;;0.6;0.6;;;;;;;14.6;100.0;101420;;;;
2022/10/28 06:21:00;;;;;;;0.6;0.6;;;;;;;14.6;100.0;101420;;;;
2022/10/28 06:22:00;;;;;;;0.6;0.6;;;;;;;14.6;100.0;101420;;;;
2022/10/28 06:23:00;;;;;;;0.6;0.6;;;;;;;14.6;100.0;101430;;;;